createdAt,value
2023-04-26T00:01:53.878Z,64.50
2023-04-26T00:09:29.315Z,64.92
2023-04-26T00:17:04.422Z,65.63
2023-04-26T00:24:39.759Z,66.26
2023-04-26T00:32:13.708Z,67.00
2023-04-26T00:39:49.222Z,67.32
2023-04-26T00:47:22.971Z,68.58
2023-04-26T00:54:58.701Z,68.91
2023-04-26T01:02:32.678Z,69.06
2023-04-26T01:10:10.627Z,69.64
2023-04-26T01:17:47.646Z,70.24
2023-04-26T01:25:25.766Z,71.29
2023-04-26T01:32:59.543Z,72.73
2023-04-26T01:40:34.799Z,73.76
2023-04-26T01:48:09.431Z,74.58
2023-04-26T01:55:44.670Z,75.39
2023-04-26T02:03:18.791Z,76.42
2023-04-26T02:10:54.379Z,76.60
2023-04-26T02:18:29.796Z,78.09
2023-04-26T02:26:05.807Z,78.52
2023-04-26T02:33:39.957Z,78.84
2023-04-26T02:41:15.354Z,79.10
2023-04-26T02:48:49.295Z,81.59
2023-04-26T02:56:24.614Z,80.81
2023-04-26T03:03:58.689Z,83.43
2023-04-26T03:11:34.675Z,84.94
2023-04-26T03:19:08.541Z,85.70
2023-04-26T03:26:43.862Z,86.15
2023-04-26T03:34:17.763Z,86.49
2023-04-26T03:49:44.734Z,86.71
2023-04-26T03:57:20.151Z,87.21
2023-04-26T04:04:54.386Z,87.71
2023-04-26T04:12:29.859Z,88.28
2023-04-26T04:20:05.287Z,89.49
2023-04-26T04:27:42.778Z,88.92
2023-04-26T04:35:17.168Z,87.55
2023-04-26T04:42:53.455Z,88.47
2023-04-26T04:50:28.259Z,87.62
2023-04-26T04:58:04.209Z,86.54
2023-04-26T05:05:38.104Z,85.33
2023-04-26T05:13:13.552Z,84.77
2023-04-26T05:20:47.463Z,85.06
2023-04-26T05:28:23.175Z,83.50
2023-04-26T05:43:51.492Z,80.29
2023-04-26T05:51:25.713Z,79.99
2023-04-26T05:59:01.021Z,77.73
2023-04-26T06:06:35.002Z,77.06
2023-04-26T06:14:19.829Z,76.05
2023-04-26T06:21:57.478Z,74.76
2023-04-26T06:29:35.121Z,73.35
2023-04-26T06:37:09.237Z,72.72
2023-04-26T06:44:44.550Z,72.25
2023-04-26T06:52:19.474Z,71.05
2023-04-26T06:59:57.146Z,69.70
2023-04-26T07:07:31.620Z,66.87
2023-04-26T07:15:08.674Z,66.43
2023-04-26T07:22:42.679Z,65.67
2023-04-26T07:30:19.210Z,63.79
2023-04-26T07:37:53.207Z,61.85
2023-04-26T07:45:28.614Z,61.58
2023-04-26T07:53:02.691Z,60.92
2023-04-26T08:00:39.094Z,60.08
2023-04-26T08:08:13.526Z,59.20
2023-04-26T08:15:48.842Z,59.02
2023-04-26T08:23:22.895Z,59.18
2023-04-26T08:30:58.407Z,57.12
2023-04-26T08:38:33.199Z,55.28
2023-04-26T08:46:12.489Z,55.87
2023-04-26T08:53:46.734Z,53.12
2023-04-26T09:01:23.287Z,52.62
2023-04-26T09:08:58.822Z,53.65
2023-04-26T09:16:40.425Z,51.67
2023-04-26T09:24:15.298Z,52.50
2023-04-26T09:31:50.889Z,51.42
2023-04-26T09:39:35.800Z,49.70
2023-04-26T09:47:12.510Z,48.97
2023-04-26T09:54:48.945Z,49.57
2023-04-26T10:02:26.401Z,47.78
2023-04-26T10:10:00.538Z,44.67
2023-04-26T10:17:35.955Z,44.43
2023-04-26T10:25:10.807Z,43.99
2023-04-26T10:33:02.494Z,43.54
2023-04-26T10:40:39.980Z,42.36
2023-04-26T10:48:18.923Z,42.25
2023-04-26T10:55:54.851Z,42.26
2023-04-26T11:03:49.301Z,45.13
2023-04-26T11:11:29.749Z,46.13
2023-04-26T11:19:04.000Z,45.83
2023-04-26T11:26:39.402Z,45.04
2023-04-26T11:34:14.260Z,43.88
2023-04-26T11:41:49.499Z,43.15
2023-04-26T11:49:23.789Z,43.45
2023-04-26T11:56:59.825Z,44.23
2023-04-26T12:04:34.249Z,43.51
2023-04-26T12:12:10.726Z,40.49
2023-04-26T12:19:44.814Z,41.42
2023-04-26T12:27:23.020Z,40.22
2023-04-26T12:34:56.972Z,40.34
2023-04-26T12:42:32.309Z,39.91
2023-04-26T12:50:06.860Z,40.18
2023-04-26T12:57:44.324Z,40.65
2023-04-26T13:05:18.124Z,41.25
2023-04-26T13:12:53.888Z,40.54
2023-04-26T13:20:30.339Z,41.19
2023-04-26T13:28:06.664Z,40.99
2023-04-26T13:35:40.647Z,40.21
2023-04-26T13:43:16.067Z,39.16
2023-04-26T13:50:49.864Z,38.57
2023-04-26T13:58:25.277Z,39.62
2023-04-26T14:05:59.139Z,40.41
2023-04-26T14:13:34.797Z,39.96
2023-04-26T14:21:08.769Z,40.24
2023-04-26T14:28:44.080Z,39.22
2023-04-26T14:36:17.906Z,38.90
2023-04-26T14:43:53.269Z,38.86
2023-04-26T14:51:27.410Z,38.49
2023-04-26T14:59:03.874Z,38.41
2023-04-26T15:06:38.861Z,39.05
2023-04-26T15:14:14.299Z,38.31
2023-04-26T15:21:52.003Z,37.60
2023-04-26T15:29:27.843Z,38.00
2023-04-26T15:37:01.794Z,37.55
2023-04-26T15:44:37.149Z,37.62
2023-04-26T15:52:11.054Z,36.92
2023-04-26T15:59:46.284Z,37.61
2023-04-26T16:07:20.583Z,37.90
2023-04-26T16:14:56.320Z,38.47
2023-04-26T16:22:30.174Z,39.29
2023-04-26T16:30:06.754Z,40.26
2023-04-26T16:37:41.758Z,39.60
2023-04-26T16:45:17.262Z,39.88
2023-04-26T16:52:51.058Z,40.85
2023-04-26T17:00:26.457Z,40.08
2023-04-26T17:08:00.703Z,39.86
2023-04-26T17:15:36.328Z,39.86
2023-04-26T17:23:10.216Z,40.03
2023-04-26T17:30:45.442Z,40.54
2023-04-26T17:38:19.441Z,41.61
2023-04-26T17:45:54.803Z,42.06
2023-04-26T17:53:28.750Z,43.03
2023-04-26T18:01:04.075Z,43.50
2023-04-26T18:08:38.034Z,43.98
2023-04-26T18:16:14.643Z,44.70
2023-04-26T18:23:48.578Z,45.35
2023-04-26T18:31:24.182Z,45.95
2023-04-26T18:39:01.366Z,46.84
2023-04-26T18:46:36.804Z,47.39
2023-04-26T18:54:11.361Z,47.62
2023-04-26T19:01:46.852Z,48.08
2023-04-26T19:09:22.021Z,48.99
2023-04-26T19:16:59.662Z,49.04
2023-04-26T19:24:33.656Z,49.18
2023-04-26T19:32:09.025Z,49.50
2023-04-26T19:39:42.795Z,49.67
2023-04-26T19:47:18.449Z,49.88
2023-04-26T19:54:54.498Z,49.68
2023-04-26T20:02:30.189Z,50.07
2023-04-26T20:10:04.209Z,50.29
2023-04-26T20:17:39.836Z,51.18
2023-04-26T20:25:13.866Z,51.92
2023-04-26T20:32:49.354Z,52.54
2023-04-26T20:40:23.480Z,53.15
2023-04-26T20:47:58.799Z,53.06
2023-04-26T20:55:32.649Z,53.46
2023-04-26T21:03:08.428Z,53.67
2023-04-26T21:10:42.600Z,53.91
2023-04-26T21:18:18.037Z,54.10
2023-04-26T21:25:52.229Z,54.41
2023-04-26T21:33:28.136Z,54.09
2023-04-26T21:41:01.896Z,54.16
2023-04-26T21:48:38.802Z,53.85
2023-04-26T21:56:14.560Z,54.55
2023-04-26T22:03:49.913Z,54.73
2023-04-26T22:11:24.080Z,55.08
2023-04-26T22:18:59.377Z,54.76
2023-04-26T22:26:33.457Z,54.78
2023-04-26T22:34:09.623Z,54.87
2023-04-26T22:41:43.408Z,55.02
2023-04-26T22:49:18.792Z,55.43
2023-04-26T22:56:52.774Z,55.62
2023-04-26T23:04:28.166Z,55.75
2023-04-26T23:12:02.299Z,55.78
2023-04-26T23:19:37.899Z,55.95
2023-04-26T23:27:12.064Z,56.46
2023-04-26T23:34:47.547Z,56.60
2023-04-26T23:42:21.485Z,56.78
2023-04-26T23:49:56.881Z,56.76
2023-04-26T23:57:30.703Z,56.82
